Time;durP1;ratioP1;P1;durP2;ratioP2;P2;SDS_P1;SDS_P2;PMS_P1;PMS_P2;Temp;Humidity;BMP_temperature;BMP_pressure;BME280_temperature;BME280_humidity;BME280_pressure;Samples;Min_cycle;Max_cycle;Signal;HPM_P1;HPM_P2
2022/09/09 03:55:38;;;;;;;3.40;2.23;;;15.20;99.90;;;;;;6083634;23;20386;31
2022/09/09 03:58:06;;;;;;;3.10;2.00;;;15.20;99.90;;;;;;4929869;29;20455;-72
2022/09/09 04:00:33;;;;;;;2.90;2.13;;;15.10;99.90;;;;;;4932615;29;20485;-74
2022/09/09 04:03:00;;;;;;;8.43;2.43;;;15.10;99.90;;;;;;4932362;29;20473;-73
2022/09/09 04:05:27;;;;;;;3.50;2.50;;;15.10;99.90;;;;;;4931223;29;20494;-73
2022/09/09 04:07:54;;;;;;;4.73;2.20;;;15.10;99.90;;;;;;4932080;29;20482;-73
2022/09/09 04:10:21;;;;;;;2.80;1.90;;;15.10;99.90;;;;;;4931696;29;20578;-74
2022/09/09 04:12:48;;;;;;;2.70;2.30;;;15.20;99.90;;;;;;4931630;29;20469;-73
2022/09/09 04:15:18;;;;;;;5.43;2.13;;;15.20;99.90;;;;;;4931301;29;20458;-75
2022/09/09 04:17:45;;;;;;;4.73;2.57;;;15.20;99.90;;;;;;4931657;29;20542;-73
2022/09/09 04:20:12;;;;;;;4.67;2.40;;;15.10;99.90;;;;;;4931252;29;20834;-73
2022/09/09 04:22:39;;;;;;;6.03;2.40;;;15.10;99.90;;;;;;4931813;29;20533;-67
2022/09/09 04:25:07;;;;;;;3.93;2.33;;;15.10;99.90;;;;;;4931025;29;20494;-67
2022/09/09 04:27:33;;;;;;;3.30;2.37;;;15.10;99.90;;;;;;4931366;29;20474;-67
2022/09/09 04:30:00;;;;;;;4.53;2.67;;;15.10;99.90;;;;;;4931947;29;20836;-73
2022/09/09 04:32:28;;;;;;;5.37;2.60;;;15.10;99.90;;;;;;4933806;29;20462;-80
2022/09/09 04:34:55;;;;;;;4.17;2.63;;;15.10;99.90;;;;;;4933300;29;20454;-77
2022/09/09 04:37:22;;;;;;;3.37;2.20;;;15.10;99.90;;;;;;4933607;29;20486;-74
2022/09/09 04:39:49;;;;;;;4.20;2.27;;;15.10;99.90;;;;;;4933036;29;20501;-75
2022/09/09 04:42:16;;;;;;;3.97;2.50;;;15.10;99.90;;;;;;4933444;29;20470;-77
2022/09/09 04:44:43;;;;;;;4.57;2.23;;;15.00;99.90;;;;;;4933110;29;20516;-75
2022/09/09 04:47:10;;;;;;;7.73;2.10;;;15.00;99.90;;;;;;4933133;29;20916;-77
2022/09/09 04:49:39;;;;;;;3.80;2.20;;;15.00;99.90;;;;;;4933257;29;21295;-74
2022/09/09 04:52:05;;;;;;;2.30;1.87;;;15.00;99.90;;;;;;4932998;29;20468;-79
2022/09/09 04:54:32;;;;;;;2.43;2.10;;;14.90;99.90;;;;;;4931844;29;20951;-76
2022/09/09 04:56:59;;;;;;;3.47;2.30;;;14.90;99.90;;;;;;4931074;29;21006;-76
2022/09/09 04:59:26;;;;;;;12.10;2.87;;;15.00;99.90;;;;;;4930414;29;20766;-76
2022/09/09 05:01:54;;;;;;;3.90;2.30;;;15.00;99.90;;;;;;4929908;29;21005;-76
2022/09/09 05:04:21;;;;;;;4.03;2.40;;;15.00;99.90;;;;;;4929459;29;20470;-75
2022/09/09 05:06:50;;;;;;;7.27;2.90;;;14.90;99.90;;;;;;4930033;29;21435;-79
2022/09/09 05:09:16;;;;;;;4.53;2.63;;;14.80;99.90;;;;;;4930347;29;20461;-76
2022/09/09 05:11:43;;;;;;;4.00;2.63;;;14.70;99.90;;;;;;4930322;29;20764;-82
2022/09/09 05:14:12;;;;;;;3.37;3.07;;;14.70;99.90;;;;;;4929811;29;20466;-75
2022/09/09 05:16:39;;;;;;;3.57;2.67;;;14.70;99.90;;;;;;4929964;29;20920;-75
2022/09/09 05:19:07;;;;;;;5.90;2.80;;;14.60;99.90;;;;;;4929942;29;20455;-75
2022/09/09 05:21:34;;;;;;;2.60;2.20;;;14.70;99.90;;;;;;4930042;29;20852;-78
2022/09/09 05:24:03;;;;;;;4.37;2.60;;;14.80;99.90;;;;;;4929554;29;20989;-78
2022/09/09 05:26:31;;;;;;;8.17;2.60;;;14.80;99.90;;;;;;4930247;29;20513;-75
2022/09/09 05:28:58;;;;;;;5.17;2.53;;;14.90;99.90;;;;;;4929778;29;20473;-80
2022/09/09 05:31:28;;;;;;;4.00;2.97;;;14.90;99.90;;;;;;4929871;29;20474;-76
2022/09/09 05:33:55;;;;;;;3.83;2.60;;;14.90;99.90;;;;;;4929956;29;20526;-75
2022/09/09 05:36:23;;;;;;;5.50;3.20;;;14.90;99.90;;;;;;4929433;29;20582;-78
2022/09/09 05:38:50;;;;;;;4.73;2.63;;;15.00;99.90;;;;;;4929674;29;20469;-78
2022/09/09 05:41:19;;;;;;;5.20;2.67;;;15.00;99.90;;;;;;4929763;29;20462;-75
2022/09/09 05:43:48;;;;;;;3.47;2.57;;;15.00;99.90;;;;;;4929682;29;20485;-78
2022/09/09 05:46:17;;;;;;;3.50;2.47;;;15.00;99.90;;;;;;4929211;29;20501;-75
2022/09/09 05:48:46;;;;;;;5.00;2.60;;;15.10;99.90;;;;;;4929478;29;20853;-78
2022/09/09 05:51:15;;;;;;;5.60;2.83;;;15.00;99.90;;;;;;4929783;29;20518;-75
2022/09/09 05:53:42;;;;;;;3.43;2.67;;;15.00;99.90;;;;;;4929566;29;20470;-80
2022/09/09 05:56:11;;;;;;;7.47;3.07;;;15.00;99.90;;;;;;4928449;29;20517;-75
2022/09/09 05:58:43;;;;;;;6.53;3.17;;;15.10;99.90;;;;;;4929174;29;20492;-83
2022/09/09 06:01:11;;;;;;;4.70;3.00;;;15.10;99.90;;;;;;4929228;29;20469;-79
2022/09/09 06:03:40;;;;;;;3.80;3.40;;;15.20;99.90;;;;;;4929394;29;20477;-77
2022/09/09 06:06:09;;;;;;;4.23;3.40;;;15.20;99.90;;;;;;4928632;29;20506;-78
2022/09/09 06:08:38;;;;;;;7.83;3.00;;;15.10;99.90;;;;;;4929197;29;20462;-76
2022/09/09 06:11:06;;;;;;;8.43;3.40;;;15.00;99.90;;;;;;4929380;29;20489;-82
2022/09/09 06:13:33;;;;;;;5.07;3.23;;;15.00;99.90;;;;;;4929216;29;20466;-77
2022/09/09 06:16:01;;;;;;;4.20;3.27;;;15.00;99.90;;;;;;4928594;29;20486;-76
2022/09/09 06:18:29;;;;;;;9.10;3.60;;;15.10;99.90;;;;;;4929367;29;20458;-79
2022/09/09 06:20:57;;;;;;;5.43;3.43;;;15.10;99.90;;;;;;4928951;29;20965;-78
2022/09/09 06:23:25;;;;;;;3.60;2.80;;;15.10;99.90;;;;;;4929033;29;20466;-77
2022/09/09 06:25:52;;;;;;;3.60;2.80;;;15.20;99.90;;;;;;4928467;29;20651;-76
2022/09/09 06:28:19;;;;;;;6.00;3.23;;;15.20;99.90;;;;;;4928796;29;20463;-77
2022/09/09 06:30:47;;;;;;;5.60;3.30;;;15.30;99.90;;;;;;4928679;29;20955;-76
2022/09/09 06:33:15;;;;;;;4.80;2.97;;;15.30;99.90;;;;;;4928711;29;21115;-81
2022/09/09 06:35:41;;;;;;;8.57;3.53;;;15.30;99.90;;;;;;4928237;29;20461;-77
2022/09/09 06:38:08;;;;;;;4.83;3.00;;;15.40;99.90;;;;;;4928615;29;20505;-76
2022/09/09 06:40:36;;;;;;;5.87;3.47;;;15.50;99.90;;;;;;4928550;29;20463;-78
2022/09/09 06:43:02;;;;;;;4.97;3.00;;;15.50;99.90;;;;;;4928744;29;20830;-79
2022/09/09 06:45:29;;;;;;;4.40;3.17;;;15.50;99.90;;;;;;4928382;29;20864;-76
2022/09/09 06:47:57;;;;;;;7.13;2.83;;;15.60;99.90;;;;;;4928446;29;20482;-77
2022/09/09 06:50:25;;;;;;;5.33;2.80;;;15.60;99.90;;;;;;4927912;29;20485;-80
2022/09/09 06:52:52;;;;;;;6.77;3.00;;;15.70;99.90;;;;;;4928669;29;20477;-83
2022/09/09 06:55:20;;;;;;;5.30;3.00;;;15.70;99.90;;;;;;4928120;29;20466;-79
2022/09/09 06:57:48;;;;;;;6.23;3.70;;;15.80;99.90;;;;;;4928877;29;20521;-76
2022/09/09 07:00:15;;;;;;;9.30;3.33;;;15.90;99.90;;;;;;4928274;29;20473;-76
2022/09/09 07:02:42;;;;;;;4.60;3.07;;;15.90;99.90;;;;;;4928502;29;20840;-76
2022/09/09 07:05:09;;;;;;;5.70;3.03;;;16.00;99.90;;;;;;4928327;29;20470;-79
2022/09/09 07:07:37;;;;;;;7.07;3.17;;;16.00;99.90;;;;;;4928818;29;20471;-75
2022/09/09 07:10:05;;;;;;;5.47;2.83;;;16.00;99.90;;;;;;4928782;29;21260;-77
2022/09/09 07:12:32;;;;;;;7.87;3.03;;;16.10;99.90;;;;;;4928350;29;20877;-77
2022/09/09 07:14:59;;;;;;;5.50;3.13;;;16.20;99.90;;;;;;4927699;29;20492;-79
2022/09/09 07:17:25;;;;;;;3.53;2.90;;;16.20;99.90;;;;;;4928242;29;20477;-77
2022/09/09 07:19:52;;;;;;;4.93;3.10;;;16.30;99.90;;;;;;4928086;29;20541;-78
2022/09/09 07:22:20;;;;;;;7.40;3.27;;;16.40;99.90;;;;;;4927887;29;20477;-84
2022/09/09 07:24:48;;;;;;;5.33;2.97;;;16.50;99.90;;;;;;4927670;29;20506;-76
2022/09/09 07:27:15;;;;;;;6.73;2.60;;;16.50;99.90;;;;;;4927310;29;20498;-78
2022/09/09 07:29:42;;;;;;;6.50;2.37;;;16.60;99.90;;;;;;4927729;29;20458;-77
2022/09/09 07:32:09;;;;;;;5.20;2.43;;;16.60;99.90;;;;;;4928363;29;20498;-79
2022/09/09 07:34:36;;;;;;;5.73;2.00;;;16.60;99.90;;;;;;4927553;29;20467;-76
2022/09/09 07:37:03;;;;;;;4.37;2.03;;;16.60;99.90;;;;;;4928017;29;20485;-76
2022/09/09 07:39:30;;;;;;;7.03;1.80;;;16.70;99.90;;;;;;4927919;29;20481;-77
2022/09/09 07:41:58;;;;;;;4.40;2.37;;;16.80;99.90;;;;;;4928210;29;20471;-76
2022/09/09 07:44:26;;;;;;;3.23;2.30;;;16.80;99.90;;;;;;4927640;29;20504;-76
2022/09/09 07:46:53;;;;;;;2.63;2.20;;;16.90;99.90;;;;;;4927830;29;20883;-77
2022/09/09 07:49:20;;;;;;;3.73;1.97;;;17.00;99.90;;;;;;4928000;29;20466;-79
2022/09/09 07:51:49;;;;;;;7.40;2.17;;;17.10;99.90;;;;;;4927949;29;20489;-76
2022/09/09 07:54:19;;;;;;;3.50;2.50;;;17.10;99.90;;;;;;4927293;29;21115;-81
2022/09/09 07:56:47;;;;;;;6.27;1.80;;;17.20;99.90;;;;;;4927830;29;20490;-77
2022/09/09 07:59:16;;;;;;;6.90;1.80;;;17.40;99.90;;;;;;4927785;29;20566;-82
2022/09/09 08:01:45;;;;;;;5.10;1.73;;;17.40;99.90;;;;;;4928000;29;20526;-78
2022/09/09 08:04:15;;;;;;;7.90;2.40;;;17.40;99.90;;;;;;4927291;29;20467;-76
2022/09/09 08:06:44;;;;;;;6.07;2.07;;;17.50;99.90;;;;;;4927609;29;21041;-77
2022/09/09 08:09:11;;;;;;;4.20;1.50;;;17.60;99.90;;;;;;4928190;29;20961;-80
2022/09/09 08:11:39;;;;;;;4.50;1.90;;;17.70;99.90;;;;;;4927796;29;20472;-76
2022/09/09 08:14:07;;;;;;;8.10;1.77;;;17.80;99.90;;;;;;4927283;29;20467;-80
2022/09/09 08:16:38;;;;;;;3.10;1.70;;;17.90;99.90;;;;;;4927621;29;20924;-79
2022/09/09 08:19:07;;;;;;;1.90;1.33;;;17.90;99.90;;;;;;4927556;29;20964;-80
2022/09/09 08:21:36;;;;;;;4.33;1.70;;;18.00;99.90;;;;;;4927802;29;20467;-76
2022/09/09 08:24:04;;;;;;;5.17;2.00;;;18.00;99.90;;;;;;4927313;29;20552;-76
2022/09/09 08:26:34;;;;;;;2.73;1.53;;;18.10;99.90;;;;;;4927627;29;20502;-82
2022/09/09 08:29:04;;;;;;;5.60;1.70;;;18.20;99.90;;;;;;4927565;29;20473;-83
2022/09/09 08:31:33;;;;;;;3.93;1.60;;;18.40;99.90;;;;;;4927580;29;20747;-85
2022/09/09 08:34:03;;;;;;;3.57;1.47;;;18.50;99.90;;;;;;4927400;29;20498;-80
2022/09/09 08:36:33;;;;;;;3.30;1.77;;;18.60;99.90;;;;;;4927062;29;20762;-83
2022/09/09 08:39:02;;;;;;;4.23;1.60;;;18.70;99.90;;;;;;4930955;29;21049;-80
2022/09/09 08:41:47;;;;;;;5.00;1.50;;;18.80;99.90;;;;;;4930942;29;21018;-78
2022/09/09 08:44:21;;;;;;;4.40;1.90;;;19.00;99.90;;;;;;4930922;29;20458;-80
2022/09/09 08:46:58;;;;;;;3.00;1.20;;;19.20;99.90;;;;;;4930720;29;20506;-78
2022/09/09 08:49:46;;;;;;;8.70;1.80;;;19.50;99.90;;;;;;4930622;29;20915;-78
2022/09/09 08:52:17;;;;;;;3.70;1.60;;;19.60;99.90;;;;;;4931029;29;20477;-82
2022/09/09 08:54:44;;;;;;;3.50;1.50;;;19.80;99.90;;;;;;4930074;29;20462;-79
2022/09/09 08:57:15;;;;;;;6.73;1.50;;;20.40;99.90;;;;;;4930760;29;20486;-77
2022/09/09 08:59:44;;;;;;;4.83;1.53;;;20.40;99.90;;;;;;4930610;29;20506;-82
2022/09/09 09:02:18;;;;;;;5.57;1.67;;;20.50;99.90;;;;;;4931235;29;20466;-83
2022/09/09 09:05:01;;;;;;;6.23;1.83;;;20.70;99.90;;;;;;4930483;29;20963;-81
2022/09/09 09:07:41;;;;;;;3.43;1.40;;;20.80;99.90;;;;;;4931299;29;20516;-77
2022/09/09 09:10:16;;;;;;;5.00;1.90;;;21.00;99.90;;;;;;4930883;29;20512;-85
2022/09/09 09:12:47;;;;;;;5.33;1.50;;;21.30;99.90;;;;;;4931608;29;20437;-77
2022/09/09 09:15:18;;;;;;;4.60;1.73;;;21.60;99.90;;;;;;4931244;29;20451;-80
2022/09/09 09:17:49;;;;;;;2.80;1.50;;;22.00;99.90;;;;;;4932937;29;20474;-79
2022/09/09 09:20:34;;;;;;;3.10;1.13;;;22.00;99.90;;;;;;4931333;29;20470;-78
2022/09/09 09:23:05;;;;;;;3.37;1.80;;;22.00;99.90;;;;;;4931766;29;20534;-77
2022/09/09 09:25:35;;;;;;;4.73;1.50;;;22.70;99.90;;;;;;4931106;29;20471;-77
2022/09/09 09:28:17;;;;;;;4.37;1.40;;;23.40;99.90;;;;;;4932725;29;20497;-75
2022/09/09 09:30:49;;;;;;;2.70;1.30;;;23.30;99.90;;;;;;4932174;29;20455;-83
2022/09/09 09:33:22;;;;;;;5.00;1.50;;;22.90;99.90;;;;;;4931748;29;20824;-79
2022/09/09 09:35:51;;;;;;;4.50;1.17;;;22.90;99.90;;;;;;4930882;29;20466;-79
2022/09/09 09:38:22;;;;;;;4.63;1.80;;;23.30;99.90;;;;;;4933250;29;20454;-76
2022/09/09 09:40:57;;;;;;;3.03;1.37;;;23.20;99.90;;;;;;4932348;29;20978;-76
2022/09/09 09:43:27;;;;;;;4.07;1.33;;;23.00;99.90;;;;;;4933248;29;20446;-79
2022/09/09 09:45:54;;;;;;;3.63;1.17;;;22.90;99.90;;;;;;4933209;29;20557;-79
2022/09/09 09:48:22;;;;;;;4.23;1.50;;;22.90;99.90;;;;;;4933123;29;20472;-76
2022/09/09 09:50:52;;;;;;;3.20;1.40;;;22.70;99.90;;;;;;4931279;29;20462;-78
2022/09/09 09:53:24;;;;;;;8.00;2.00;;;22.50;99.90;;;;;;4930072;29;20468;-84
2022/09/09 09:55:56;;;;;;;3.70;1.43;;;22.30;99.90;;;;;;4929107;29;20439;-79
2022/09/09 09:58:25;;;;;;;6.17;1.73;;;22.20;99.90;;;;;;4929731;29;20462;-75
2022/09/09 10:00:53;;;;;;;6.53;1.97;;;22.00;99.90;;;;;;4930029;29;20733;-76
2022/09/09 10:03:25;;;;;;;7.00;1.70;;;21.90;99.90;;;;;;4929488;29;20885;-80
2022/09/09 10:05:56;;;;;;;4.47;1.63;;;21.80;99.90;;;;;;4928837;29;20470;-77
2022/09/09 10:08:23;;;;;;;4.40;1.80;;;21.70;99.90;;;;;;4929740;29;20850;-77
2022/09/09 10:11:14;;;;;;;4.60;1.50;;;21.60;99.90;;;;;;4928608;29;20467;-75
2022/09/09 10:13:50;;;;;;;3.13;1.70;;;21.60;99.90;;;;;;4932591;29;20454;-80
2022/09/09 10:16:36;;;;;;;3.50;1.50;;;21.90;99.90;;;;;;4929979;29;20493;-79
2022/09/09 10:19:06;;;;;;;3.60;1.43;;;21.90;99.90;;;;;;4930273;29;20451;-76
2022/09/09 10:21:49;;;;;;;4.20;1.50;;;21.80;99.90;;;;;;4931227;29;20458;-77
2022/09/09 10:24:49;;;;;;;3.77;1.30;;;22.10;99.90;;;;;;4933360;29;20451;-75
2022/09/09 10:27:22;;;;;;;2.00;1.20;;;22.50;99.90;;;;;;4882476;29;20533;-79
2022/09/09 10:30:08;;;;;;;2.17;1.00;;;22.60;99.90;;;;;;4930179;29;20465;-66
2022/09/09 10:32:50;;;;;;;4.40;1.50;;;22.70;99.90;;;;;;4929676;29;20488;-67
2022/09/09 10:35:30;;;;;;;3.10;1.23;;;23.30;99.90;;;;;;4928576;29;20446;-67
2022/09/09 10:38:18;;;;;;;2.93;1.30;;;24.00;99.90;;;;;;4929123;29;20478;-66
2022/09/09 10:41:02;;;;;;;1.93;1.10;;;24.80;99.90;;;;;;4929571;29;20443;-68
2022/09/09 10:43:44;;;;;;;4.03;1.30;;;25.10;99.90;;;;;;4929232;29;20443;-66
2022/09/09 10:46:21;;;;;;;2.87;1.00;;;24.90;99.90;;;;;;4928517;29;20486;-67
2022/09/09 10:49:04;;;;;;;3.57;1.00;;;24.60;99.90;;;;;;4929189;29;20454;-67
2022/09/09 10:51:42;;;;;;;2.20;0.97;;;25.10;99.90;;;;;;4931013;29;20513;-75
2022/09/09 10:54:25;;;;;;;2.90;1.10;;;25.30;99.90;;;;;;4929828;29;20537;-84
2022/09/09 10:56:56;;;;;;;4.27;1.30;;;25.10;99.90;;;;;;4929345;29;20860;-79
2022/09/09 10:59:27;;;;;;;2.93;1.10;;;25.00;99.90;;;;;;4928742;29;20991;-77
2022/09/09 11:01:59;;;;;;;1.97;1.00;;;24.70;99.90;;;;;;4928236;29;20472;-85
2022/09/09 11:04:32;;;;;;;2.83;1.00;;;24.40;99.90;;;;;;4928105;29;20952;-76
2022/09/09 11:07:04;;;;;;;3.37;0.90;;;24.10;99.90;;;;;;4930136;29;20494;-78
2022/09/09 11:09:39;;;;;;;2.37;1.33;;;23.70;99.90;;;;;;4929787;29;20458;-81
2022/09/09 11:12:11;;;;;;;3.03;1.17;;;23.40;99.90;;;;;;4931152;29;20466;-75
2022/09/09 11:14:42;;;;;;;1.90;0.90;;;23.20;99.90;;;;;;4930593;29;20454;-76
2022/09/09 11:17:13;;;;;;;3.30;1.20;;;23.10;99.90;;;;;;4931894;29;20478;-82
2022/09/09 11:19:41;;;;;;;3.97;1.23;;;23.00;99.90;;;;;;4932019;29;20477;-82
2022/09/09 11:22:18;;;;;;;2.00;1.00;;;22.90;99.90;;;;;;4932182;29;20593;-75
2022/09/09 11:24:51;;;;;;;7.27;1.50;;;22.90;99.90;;;;;;4932102;29;20442;-80
2022/09/09 11:27:26;;;;;;;2.67;1.20;;;22.90;99.90;;;;;;4931839;29;20534;-81
2022/09/09 11:30:17;;;;;;;5.60;1.40;;;22.80;99.90;;;;;;4932241;29;20861;-80
2022/09/09 11:33:14;;;;;;;2.63;1.00;;;22.60;99.90;;;;;;4932452;29;20447;-75
2022/09/09 11:35:49;;;;;;;4.43;1.50;;;22.40;99.90;;;;;;4932369;29;20446;-75
2022/09/09 11:38:27;;;;;;;6.40;1.30;;;22.30;99.90;;;;;;4930636;29;20445;-80
2022/09/09 11:41:05;;;;;;;6.67;1.70;;;22.10;99.90;;;;;;4930509;29;20773;-75
2022/09/09 11:43:38;;;;;;;5.53;2.00;;;21.50;99.90;;;;;;4929287;29;20453;-75
2022/09/09 11:46:05;;;;;;;13.00;3.83;;;20.90;99.90;;;;;;4928447;29;20486;-74
2022/09/09 11:48:37;;;;;;;11.60;2.83;;;20.30;99.90;;;;;;4931746;29;20896;-74
2022/09/09 11:51:08;;;;;;;10.47;3.03;;;20.10;99.90;;;;;;4934839;29;20450;-74
2022/09/09 11:53:35;;;;;;;10.90;2.60;;;19.90;99.90;;;;;;4934452;29;20805;-75
2022/09/09 11:56:14;;;;;;;8.90;2.20;;;19.90;99.90;;;;;;4932527;29;20553;-74
2022/09/09 11:58:45;;;;;;;9.03;2.50;;;19.50;99.90;;;;;;4933403;29;20449;-75
2022/09/09 12:01:34;;;;;;;7.80;2.40;;;19.30;99.90;;;;;;4934814;29;20866;-74
2022/09/09 12:04:15;;;;;;;6.63;2.20;;;19.10;99.90;;;;;;4934319;29;20439;-75
2022/09/09 12:06:45;;;;;;;4.93;1.90;;;18.90;99.90;;;;;;4934633;29;20482;-77
2022/09/09 12:09:23;;;;;;;9.63;1.93;;;18.80;99.90;;;;;;4934473;29;20481;-75
2022/09/09 12:11:51;;;;;;;5.67;1.77;;;18.90;99.90;;;;;;4934182;29;20743;-77
2022/09/09 12:14:23;;;;;;;6.33;2.63;;;19.10;99.90;;;;;;4935391;29;20471;-75
2022/09/09 12:16:50;;;;;;;11.63;2.47;;;19.20;99.90;;;;;;4935388;29;20975;-78
2022/09/09 12:19:24;;;;;;;3.57;1.90;;;19.40;99.90;;;;;;4935184;29;20962;-78
2022/09/09 12:21:59;;;;;;;6.53;1.70;;;19.60;99.90;;;;;;4934327;29;20470;-76
2022/09/09 12:24:34;;;;;;;9.17;2.80;;;19.70;99.90;;;;;;4934855;29;20550;-76
2022/09/09 12:27:09;;;;;;;7.10;2.07;;;19.80;99.90;;;;;;4933921;29;20482;-78
2022/09/09 12:29:45;;;;;;;6.63;2.77;;;19.90;99.90;;;;;;4932785;29;20449;-76
2022/09/09 12:32:16;;;;;;;8.47;2.30;;;20.00;99.90;;;;;;4932562;29;20453;-79
2022/09/09 12:34:49;;;;;;;4.40;2.47;;;20.10;99.90;;;;;;4931879;29;20446;-75
2022/09/09 12:37:22;;;;;;;7.40;1.87;;;20.30;99.90;;;;;;4934184;29;20479;-79
2022/09/09 12:39:55;;;;;;;3.43;1.80;;;20.50;99.90;;;;;;4935093;29;20947;-76
2022/09/09 12:42:25;;;;;;;7.70;1.83;;;20.60;99.90;;;;;;4934827;29;20492;-77
2022/09/09 12:44:53;;;;;;;6.20;2.00;;;20.90;99.90;;;;;;4933383;29;20462;-76
2022/09/09 12:47:23;;;;;;;6.37;1.83;;;21.30;99.90;;;;;;4933847;29;20508;-80
2022/09/09 12:49:56;;;;;;;5.27;1.60;;;21.60;99.90;;;;;;4934664;29;20490;-76
2022/09/09 12:52:29;;;;;;;5.57;1.60;;;21.80;99.90;;;;;;4933124;29;20982;-76
2022/09/09 12:54:58;;;;;;;6.10;1.60;;;22.10;99.90;;;;;;4934338;29;20533;-79
2022/09/09 12:57:29;;;;;;;2.30;1.37;;;22.20;99.90;;;;;;4930816;29;20522;-77
2022/09/09 13:00:06;;;;;;;2.70;1.20;;;22.40;99.90;;;;;;4931643;29;20470;-76
2022/09/09 13:02:33;;;;;;;2.87;0.90;;;22.20;99.90;;;;;;4931679;29;20466;-78
2022/09/09 13:05:14;;;;;;;3.53;1.20;;;21.90;99.90;;;;;;4930660;29;20462;-76
2022/09/09 13:07:44;;;;;;;4.20;1.10;;;21.90;99.90;;;;;;4930913;29;20722;-76
2022/09/09 13:10:12;;;;;;;6.30;1.10;;;22.00;99.90;;;;;;4930626;29;20466;-77
2022/09/09 13:12:42;;;;;;;2.47;0.97;;;21.70;99.90;;;;;;4930031;29;21034;-77
2022/09/09 13:15:22;;;;;;;2.87;1.00;;;21.40;99.90;;;;;;4930035;29;20477;-79
2022/09/09 13:17:55;;;;;;;2.77;0.90;;;21.40;99.90;;;;;;4930616;29;20478;-76
2022/09/09 13:20:23;;;;;;;4.27;1.30;;;21.30;99.90;;;;;;4930666;29;20515;-77
2022/09/09 13:22:52;;;;;;;1.70;0.90;;;21.20;99.90;;;;;;4930658;29;20466;-78
2022/09/09 13:25:24;;;;;;;2.70;0.90;;;21.20;99.90;;;;;;4929244;29;20469;-77
2022/09/09 13:28:02;;;;;;;1.03;0.77;;;21.40;99.90;;;;;;4930519;29;20994;-76
2022/09/09 13:30:31;;;;;;;2.93;1.10;;;21.70;99.90;;;;;;4930691;29;20469;-78
2022/09/09 13:33:05;;;;;;;2.00;0.93;;;21.80;99.90;;;;;;4930994;29;20561;-76
2022/09/09 13:35:33;;;;;;;4.10;0.97;;;21.80;99.90;;;;;;4930483;29;20465;-81
2022/09/09 13:38:08;;;;;;;1.13;0.80;;;21.90;99.90;;;;;;4930841;29;20982;-78
2022/09/09 13:40:36;;;;;;;2.70;1.10;;;21.70;99.90;;;;;;4931191;29;20494;-77
2022/09/09 13:43:05;;;;;;;1.90;0.80;;;21.60;99.90;;;;;;4930275;29;20770;-75
2022/09/09 13:45:34;;;;;;;1.63;0.93;;;21.40;99.90;;;;;;4929431;29;20493;-81
2022/09/09 13:48:10;;;;;;;2.93;1.00;;;21.30;99.90;;;;;;4930306;29;21035;-82
2022/09/09 13:50:37;;;;;;;2.87;0.90;;;21.10;99.90;;;;;;4930435;29;20476;-76
2022/09/09 13:53:04;;;;;;;1.47;0.70;;;21.00;99.90;;;;;;4929291;29;20522;-75
2022/09/09 13:55:31;;;;;;;1.93;1.17;;;21.00;99.90;;;;;;4929102;29;20466;-75
2022/09/09 13:58:03;;;;;;;2.33;1.10;;;21.00;99.90;;;;;;4929475;29;21128;-83
2022/09/09 14:00:33;;;;;;;2.40;1.07;;;21.00;99.90;;;;;;4931054;29;20533;-79
2022/09/09 14:03:01;;;;;;;2.43;0.90;;;21.00;99.90;;;;;;4930140;29;20458;-75
2022/09/09 14:05:29;;;;;;;2.93;1.10;;;21.10;99.90;;;;;;4929478;29;20469;-83
2022/09/09 14:08:00;;;;;;;1.13;0.83;;;21.20;99.90;;;;;;4930416;29;21300;-79
2022/09/09 14:10:27;;;;;;;3.50;1.00;;;21.20;99.90;;;;;;4930440;29;20470;-77
2022/09/09 14:12:53;;;;;;;1.93;0.80;;;21.20;99.90;;;;;;4930324;29;20471;-79
2022/09/09 14:15:21;;;;;;;2.50;1.00;;;21.30;99.90;;;;;;4930258;29;20474;-77
2022/09/09 14:17:52;;;;;;;1.93;0.80;;;21.40;99.90;;;;;;4930784;29;20762;-76
2022/09/09 14:20:19;;;;;;;7.43;1.20;;;21.50;99.90;;;;;;4929789;29;20458;-79
2022/09/09 14:22:46;;;;;;;5.30;1.27;;;21.50;99.90;;;;;;4929916;29;20749;-83
2022/09/09 14:25:14;;;;;;;2.20;0.73;;;21.50;99.90;;;;;;4930090;29;20466;-76
2022/09/09 14:27:42;;;;;;;1.57;0.90;;;21.50;99.90;;;;;;4930089;29;20486;-76
2022/09/09 14:30:10;;;;;;;2.13;1.10;;;21.50;99.90;;;;;;4929934;29;20478;-76
2022/09/09 14:32:38;;;;;;;1.90;0.90;;;21.50;99.90;;;;;;4929821;29;21137;-75
2022/09/09 14:35:07;;;;;;;2.40;1.07;;;21.70;99.90;;;;;;4929162;29;20525;-82
2022/09/09 14:37:34;;;;;;;3.27;1.03;;;21.80;99.90;;;;;;4930237;29;20549;-75
2022/09/09 14:40:01;;;;;;;3.60;1.10;;;21.90;99.90;;;;;;4931336;29;20463;-75
2022/09/09 14:42:30;;;;;;;1.77;1.10;;;21.90;99.90;;;;;;4930220;29;20955;-79
2022/09/09 14:44:56;;;;;;;3.13;1.10;;;21.90;99.90;;;;;;4931399;29;20471;-77
2022/09/09 14:47:23;;;;;;;4.20;0.90;;;22.10;99.90;;;;;;4930456;29;20488;-76
2022/09/09 14:49:53;;;;;;;2.40;1.23;;;22.30;99.90;;;;;;4929433;29;20585;-76
2022/09/09 14:52:21;;;;;;;2.50;1.00;;;22.50;99.90;;;;;;4929371;29;20558;-76
2022/09/09 14:54:49;;;;;;;2.63;0.93;;;22.70;99.90;;;;;;4928952;29;20553;-75
2022/09/09 14:57:16;;;;;;;1.57;0.97;;;22.90;99.90;;;;;;4929424;29;20509;-79
2022/09/09 14:59:42;;;;;;;3.50;1.00;;;23.20;99.90;;;;;;4929114;29;20985;-82
2022/09/09 15:02:10;;;;;;;3.87;1.10;;;23.40;99.90;;;;;;4929966;29;20463;-76
2022/09/09 15:04:36;;;;;;;3.87;1.10;;;23.60;99.90;;;;;;4928744;29;20468;-76
2022/09/09 15:07:03;;;;;;;2.93;0.80;;;23.70;99.90;;;;;;4929503;29;20829;-78
2022/09/09 15:09:31;;;;;;;2.20;1.00;;;23.80;99.90;;;;;;4929622;29;20509;-78
2022/09/09 15:11:58;;;;;;;3.83;0.97;;;23.80;99.90;;;;;;4929289;29;20538;-74
2022/09/09 15:14:25;;;;;;;3.90;1.13;;;23.70;99.90;;;;;;4928412;29;20470;-76
2022/09/09 15:16:53;;;;;;;3.50;0.80;;;23.60;99.90;;;;;;4929333;29;20872;-74
2022/09/09 15:19:19;;;;;;;1.87;0.93;;;23.50;99.90;;;;;;4929290;29;20978;-80
2022/09/09 15:21:47;;;;;;;3.17;1.17;;;23.40;99.90;;;;;;4929390;29;20469;-74
2022/09/09 15:24:14;;;;;;;2.20;0.93;;;23.30;99.90;;;;;;4928876;29;20958;-76
2022/09/09 15:26:42;;;;;;;1.93;0.83;;;23.00;99.90;;;;;;4929425;29;20486;-75
2022/09/09 15:29:09;;;;;;;3.70;1.10;;;22.90;99.90;;;;;;4929077;29;20490;-75
2022/09/09 15:31:37;;;;;;;2.90;1.00;;;22.90;99.90;;;;;;4928912;29;20839;-79
2022/09/09 15:34:05;;;;;;;4.20;1.30;;;22.70;99.90;;;;;;4928543;29;20473;-85
2022/09/09 15:36:34;;;;;;;2.53;1.00;;;22.70;99.90;;;;;;4929221;29;20486;-77
2022/09/09 15:39:03;;;;;;;1.73;1.03;;;22.50;99.90;;;;;;4929345;29;20470;-75
2022/09/09 15:41:31;;;;;;;2.30;0.90;;;22.40;99.90;;;;;;4928603;29;20466;-76
2022/09/09 15:44:00;;;;;;;7.53;1.17;;;22.20;99.90;;;;;;4928354;29;20754;-80
2022/09/09 15:46:30;;;;;;;1.73;0.90;;;22.10;99.90;;;;;;4928445;29;21061;-78
2022/09/09 15:48:59;;;;;;;3.00;0.90;;;22.10;99.90;;;;;;4932510;29;20789;-80
2022/09/09 15:51:27;;;;;;;3.77;1.17;;;22.10;99.90;;;;;;4933098;29;20473;-82
2022/09/09 15:53:58;;;;;;;1.60;0.90;;;22.00;99.90;;;;;;4933295;29;20931;-78
2022/09/09 15:56:26;;;;;;;4.50;0.80;;;21.80;99.90;;;;;;4932939;29;20490;-76
2022/09/09 15:58:54;;;;;;;4.40;0.90;;;21.70;99.90;;;;;;4932870;29;20561;-77
2022/09/09 16:01:22;;;;;;;4.03;1.00;;;21.60;99.90;;;;;;4933435;29;20553;-78
2022/09/09 16:03:50;;;;;;;2.20;1.10;;;21.60;99.90;;;;;;4932966;29;20458;-79
2022/09/09 16:06:18;;;;;;;1.27;0.80;;;21.60;99.90;;;;;;4933262;29;20522;-75
2022/09/09 16:08:46;;;;;;;1.87;1.17;;;21.50;99.90;;;;;;4932583;29;20509;-78
2022/09/09 16:11:15;;;;;;;1.80;1.00;;;21.50;99.90;;;;;;4931769;29;20813;-77
2022/09/09 16:13:43;;;;;;;2.50;1.00;;;21.40;99.90;;;;;;4931897;29;20485;-77
2022/09/09 16:16:12;;;;;;;2.07;1.37;;;21.50;99.90;;;;;;4930640;29;20490;-77
2022/09/09 16:18:45;;;;;;;1.63;0.90;;;21.40;99.90;;;;;;4931808;29;20504;-77
2022/09/09 16:21:15;;;;;;;2.30;1.00;;;21.40;99.90;;;;;;4930891;29;20569;-77
2022/09/09 16:23:43;;;;;;;2.50;1.00;;;21.40;99.90;;;;;;4930975;29;20640;-78
2022/09/09 16:26:12;;;;;;;2.20;1.00;;;21.30;99.90;;;;;;4930963;29;20572;-75
2022/09/09 16:28:40;;;;;;;2.13;0.97;;;21.30;99.90;;;;;;4931381;29;20565;-76
2022/09/09 16:31:07;;;;;;;1.83;0.83;;;21.20;99.90;;;;;;4931423;29;20462;-78
2022/09/09 16:33:34;;;;;;;2.40;0.77;;;21.20;99.90;;;;;;4930813;29;20462;-77
2022/09/09 16:36:08;;;;;;;2.37;0.80;;;21.10;99.90;;;;;;4928369;29;20482;-77
2022/09/09 16:38:35;;;;;;;2.83;1.17;;;21.00;99.90;;;;;;4926228;29;20470;-75
2022/09/09 16:41:02;;;;;;;1.93;0.90;;;21.00;99.90;;;;;;4920638;29;20466;-76
2022/09/09 16:43:29;;;;;;;6.43;1.20;;;20.90;99.90;;;;;;4928973;29;20462;-76
2022/09/09 16:45:56;;;;;;;4.87;1.13;;;20.70;99.90;;;;;;4927449;29;20451;-77
2022/09/09 16:48:22;;;;;;;7.17;1.10;;;20.30;99.90;;;;;;4911448;29;20474;-77
2022/09/09 16:50:49;;;;;;;5.17;1.10;;;19.90;99.90;;;;;;4912055;29;20470;-77
2022/09/09 16:53:17;;;;;;;3.53;1.00;;;19.70;99.90;;;;;;4911905;29;20944;-76
2022/09/09 16:55:44;;;;;;;1.83;1.10;;;19.40;99.90;;;;;;4910944;29;21113;-77